sensor_id;sensor_type;location;lat;lon;timestamp;P1;P2;P0
74419;PMS5003;62855;50.718;-2.460;2023-05-17T00:01:06;2.72;2.93;
74419;PMS5003;62855;50.718;-2.460;2023-05-17T00:04:05;1.82;1.96;
74419;PMS5003;62855;50.718;-2.460;2023-05-17T00:07:06;1.82;1.96;
74419;PMS5003;62855;50.718;-2.460;2023-05-17T00:10:06;1.82;1.96;
74419;PMS5003;62855;50.718;-2.460;2023-05-17T00:13:06;1.82;1.96;
74419;PMS5003;62855;50.718;-2.460;2023-05-17T00:16:06;1.82;1.96;
74419;PMS5003;62855;50.718;-2.460;2023-05-17T00:19:06;1.82;1.96;
74419;PMS5003;62855;50.718;-2.460;2023-05-17T00:22:06;1.82;1.96;
74419;PMS5003;62855;50.718;-2.460;2023-05-17T00:25:06;2.72;1.96;
74419;PMS5003;62855;50.718;-2.460;2023-05-17T00:28:06;2.72;1.96;
74419;PMS5003;62855;50.718;-2.460;2023-05-17T00:31:06;2.72;1.96;
74419;PMS5003;62855;50.718;-2.460;2023-05-17T00:34:06;2.72;1.96;
74419;PMS5003;62855;50.718;-2.460;2023-05-17T00:37:06;2.72;1.96;
74419;PMS5003;62855;50.718;-2.460;2023-05-17T00:40:06;2.72;1.96;
74419;PMS5003;62855;50.718;-2.460;2023-05-17T00:43:06;1.82;0.98;
74419;PMS5003;62855;50.718;-2.460;2023-05-17T00:46:06;1.82;1.96;
74419;PMS5003;62855;50.718;-2.460;2023-05-17T00:49:06;2.72;1.96;
74419;PMS5003;62855;50.718;-2.460;2023-05-17T00:52:06;2.72;1.96;
74419;PMS5003;62855;50.718;-2.460;2023-05-17T00:55:06;1.82;1.96;
74419;PMS5003;62855;50.718;-2.460;2023-05-17T00:58:06;1.82;1.96;
74419;PMS5003;62855;50.718;-2.460;2023-05-17T01:01:06;1.82;1.96;
74419;PMS5003;62855;50.718;-2.460;2023-05-17T01:04:05;1.82;1.96;
74419;PMS5003;62855;50.718;-2.460;2023-05-17T01:07:07;1.82;1.96;
74419;PMS5003;62855;50.718;-2.460;2023-05-17T01:10:07;0.91;0.98;
74419;PMS5003;62855;50.718;-2.460;2023-05-17T01:13:08;0.91;0.98;
74419;PMS5003;62855;50.718;-2.460;2023-05-17T01:16:07;1.82;0.98;
74419;PMS5003;62855;50.718;-2.460;2023-05-17T01:19:07;1.82;0.98;
74419;PMS5003;62855;50.718;-2.460;2023-05-17T01:22:08;1.82;1.96;
74419;PMS5003;62855;50.718;-2.460;2023-05-17T01:25:10;1.82;0.98;
74419;PMS5003;62855;50.718;-2.460;2023-05-17T01:28:05;2.72;1.96;
74419;PMS5003;62855;50.718;-2.460;2023-05-17T01:31:06;2.72;1.96;
74419;PMS5003;62855;50.718;-2.460;2023-05-17T01:34:06;2.72;1.96;
74419;PMS5003;62855;50.718;-2.460;2023-05-17T01:37:05;1.82;0.98;
74419;PMS5003;62855;50.718;-2.460;2023-05-17T01:40:06;2.72;0.98;
74419;PMS5003;62855;50.718;-2.460;2023-05-17T01:43:08;2.72;1.96;
74419;PMS5003;62855;50.718;-2.460;2023-05-17T01:46:08;1.82;0.98;
74419;PMS5003;62855;50.718;-2.460;2023-05-17T01:49:08;2.72;1.96;
74419;PMS5003;62855;50.718;-2.460;2023-05-17T01:52:07;2.72;1.96;
74419;PMS5003;62855;50.718;-2.460;2023-05-17T01:53:06;4.54;4.89;
74419;PMS5003;62855;50.718;-2.460;2023-05-17T01:56:07;4.54;4.89;
74419;PMS5003;62855;50.718;-2.460;2023-05-17T01:59:06;5.45;5.87;
74419;PMS5003;62855;50.718;-2.460;2023-05-17T02:02:05;5.45;4.89;
74419;PMS5003;62855;50.718;-2.460;2023-05-17T02:05:06;5.45;4.89;
74419;PMS5003;62855;50.718;-2.460;2023-05-17T02:08:06;5.45;4.89;
74419;PMS5003;62855;50.718;-2.460;2023-05-17T02:11:06;4.54;4.89;
74419;PMS5003;62855;50.718;-2.460;2023-05-17T02:14:06;4.54;4.89;
74419;PMS5003;62855;50.718;-2.460;2023-05-17T02:17:05;4.54;4.89;
74419;PMS5003;62855;50.718;-2.460;2023-05-17T02:20:06;4.54;4.89;
74419;PMS5003;62855;50.718;-2.460;2023-05-17T02:23:05;4.54;4.89;
74419;PMS5003;62855;50.718;-2.460;2023-05-17T02:26:05;3.63;3.91;
74419;PMS5003;62855;50.718;-2.460;2023-05-17T02:29:05;3.63;3.91;
74419;PMS5003;62855;50.718;-2.460;2023-05-17T02:32:06;4.54;4.89;
74419;PMS5003;62855;50.718;-2.460;2023-05-17T02:35:06;5.45;4.89;
74419;PMS5003;62855;50.718;-2.460;2023-05-17T02:38:06;6.35;5.87;
74419;PMS5003;62855;50.718;-2.460;2023-05-17T02:41:06;6.35;4.89;
74419;PMS5003;62855;50.718;-2.460;2023-05-17T02:44:05;6.35;4.89;
74419;PMS5003;62855;50.718;-2.460;2023-05-17T02:47:05;6.35;4.89;
74419;PMS5003;62855;50.718;-2.460;2023-05-17T02:50:06;6.35;5.87;
74419;PMS5003;62855;50.718;-2.460;2023-05-17T02:53:05;6.35;5.87;
74419;PMS5003;62855;50.718;-2.460;2023-05-17T02:56:06;6.35;5.87;
74419;PMS5003;62855;50.718;-2.460;2023-05-17T02:59:06;6.35;5.87;
74419;PMS5003;62855;50.718;-2.460;2023-05-17T03:02:05;5.45;5.87;
74419;PMS5003;62855;50.718;-2.460;2023-05-17T03:05:06;5.45;5.87;
74419;PMS5003;62855;50.718;-2.460;2023-05-17T03:08:05;4.54;4.89;
74419;PMS5003;62855;50.718;-2.460;2023-05-17T03:11:06;4.54;4.89;
74419;PMS5003;62855;50.718;-2.460;2023-05-17T03:14:06;4.54;4.89;
74419;PMS5003;62855;50.718;-2.460;2023-05-17T03:17:06;4.54;4.89;
74419;PMS5003;62855;50.718;-2.460;2023-05-17T03:20:06;4.54;4.89;
74419;PMS5003;62855;50.718;-2.460;2023-05-17T03:23:05;5.45;5.87;
74419;PMS5003;62855;50.718;-2.460;2023-05-17T03:26:06;5.45;5.87;
74419;PMS5003;62855;50.718;-2.460;2023-05-17T03:29:06;4.54;4.89;
74419;PMS5003;62855;50.718;-2.460;2023-05-17T03:32:06;4.54;4.89;
74419;PMS5003;62855;50.718;-2.460;2023-05-17T03:35:06;4.54;4.89;
74419;PMS5003;62855;50.718;-2.460;2023-05-17T03:38:06;5.45;5.87;
74419;PMS5003;62855;50.718;-2.460;2023-05-17T03:41:06;5.45;5.87;
74419;PMS5003;62855;50.718;-2.460;2023-05-17T03:44:06;5.45;5.87;
74419;PMS5003;62855;50.718;-2.460;2023-05-17T03:47:05;5.45;5.87;
74419;PMS5003;62855;50.718;-2.460;2023-05-17T03:50:06;5.45;5.87;
74419;PMS5003;62855;50.718;-2.460;2023-05-17T03:53:06;5.45;5.87;
74419;PMS5003;62855;50.718;-2.460;2023-05-17T03:56:06;5.45;5.87;
74419;PMS5003;62855;50.718;-2.460;2023-05-17T03:59:06;5.45;5.87;
74419;PMS5003;62855;50.718;-2.460;2023-05-17T04:02:06;6.35;6.84;
74419;PMS5003;62855;50.718;-2.460;2023-05-17T04:05:06;6.35;6.84;
74419;PMS5003;62855;50.718;-2.460;2023-05-17T04:08:06;5.45;5.87;
74419;PMS5003;62855;50.718;-2.460;2023-05-17T04:11:06;5.45;5.87;
74419;PMS5003;62855;50.718;-2.460;2023-05-17T04:14:06;6.35;5.87;
74419;PMS5003;62855;50.718;-2.460;2023-05-17T04:17:06;6.35;5.87;
74419;PMS5003;62855;50.718;-2.460;2023-05-17T04:20:06;6.35;5.87;
74419;PMS5003;62855;50.718;-2.460;2023-05-17T04:23:07;6.35;5.87;
74419;PMS5003;62855;50.718;-2.460;2023-05-17T04:26:06;6.35;6.84;
74419;PMS5003;62855;50.718;-2.460;2023-05-17T04:29:06;7.26;6.84;
74419;PMS5003;62855;50.718;-2.460;2023-05-17T04:32:06;7.26;6.84;
74419;PMS5003;62855;50.718;-2.460;2023-05-17T04:35:06;7.26;5.87;
74419;PMS5003;62855;50.718;-2.460;2023-05-17T04:38:06;7.26;5.87;
74419;PMS5003;62855;50.718;-2.460;2023-05-17T04:41:06;8.17;6.84;
74419;PMS5003;62855;50.718;-2.460;2023-05-17T04:44:06;8.17;7.82;
74419;PMS5003;62855;50.718;-2.460;2023-05-17T04:47:06;7.26;6.84;
74419;PMS5003;62855;50.718;-2.460;2023-05-17T04:50:06;7.26;6.84;
74419;PMS5003;62855;50.718;-2.460;2023-05-17T04:53:05;7.26;6.84;
74419;PMS5003;62855;50.718;-2.460;2023-05-17T04:56:06;7.26;5.87;
74419;PMS5003;62855;50.718;-2.460;2023-05-17T04:59:06;6.35;5.87;
74419;PMS5003;62855;50.718;-2.460;2023-05-17T05:02:06;5.45;5.87;
74419;PMS5003;62855;50.718;-2.460;2023-05-17T05:05:06;4.54;4.89;
74419;PMS5003;62855;50.718;-2.460;2023-05-17T05:08:07;4.54;4.89;
74419;PMS5003;62855;50.718;-2.460;2023-05-17T05:11:06;4.54;4.89;
74419;PMS5003;62855;50.718;-2.460;2023-05-17T05:14:06;3.63;3.91;
74419;PMS5003;62855;50.718;-2.460;2023-05-17T05:17:06;3.63;3.91;
74419;PMS5003;62855;50.718;-2.460;2023-05-17T05:20:06;4.54;4.89;
74419;PMS5003;62855;50.718;-2.460;2023-05-17T05:23:06;4.54;4.89;
74419;PMS5003;62855;50.718;-2.460;2023-05-17T05:26:05;4.54;4.89;
74419;PMS5003;62855;50.718;-2.460;2023-05-17T05:29:05;6.35;5.87;
74419;PMS5003;62855;50.718;-2.460;2023-05-17T05:32:06;6.35;6.84;
74419;PMS5003;62855;50.718;-2.460;2023-05-17T05:35:06;7.26;6.84;
74419;PMS5003;62855;50.718;-2.460;2023-05-17T05:38:06;7.26;6.84;
74419;PMS5003;62855;50.718;-2.460;2023-05-17T05:41:06;7.26;6.84;
74419;PMS5003;62855;50.718;-2.460;2023-05-17T05:44:06;8.17;7.82;
74419;PMS5003;62855;50.718;-2.460;2023-05-17T05:47:05;7.26;6.84;
74419;PMS5003;62855;50.718;-2.460;2023-05-17T05:50:06;7.26;6.84;
74419;PMS5003;62855;50.718;-2.460;2023-05-17T05:53:05;7.26;6.84;
74419;PMS5003;62855;50.718;-2.460;2023-05-17T05:56:05;8.17;6.84;
74419;PMS5003;62855;50.718;-2.460;2023-05-17T05:59:06;7.26;5.87;
74419;PMS5003;62855;50.718;-2.460;2023-05-17T06:02:06;6.35;5.87;
74419;PMS5003;62855;50.718;-2.460;2023-05-17T06:05:06;6.35;5.87;
74419;PMS5003;62855;50.718;-2.460;2023-05-17T06:08:05;6.35;5.87;
74419;PMS5003;62855;50.718;-2.460;2023-05-17T06:11:06;6.35;4.89;
74419;PMS5003;62855;50.718;-2.460;2023-05-17T06:14:05;5.45;4.89;
74419;PMS5003;62855;50.718;-2.460;2023-05-17T06:17:06;4.54;4.89;
74419;PMS5003;62855;50.718;-2.460;2023-05-17T06:20:06;5.45;4.89;
74419;PMS5003;62855;50.718;-2.460;2023-05-17T06:23:06;5.45;4.89;
74419;PMS5003;62855;50.718;-2.460;2023-05-17T06:26:05;4.54;4.89;
74419;PMS5003;62855;50.718;-2.460;2023-05-17T06:29:05;4.54;4.89;
74419;PMS5003;62855;50.718;-2.460;2023-05-17T06:32:06;6.35;5.87;
74419;PMS5003;62855;50.718;-2.460;2023-05-17T06:35:06;6.35;5.87;
74419;PMS5003;62855;50.718;-2.460;2023-05-17T06:38:06;6.35;5.87;
74419;PMS5003;62855;50.718;-2.460;2023-05-17T06:41:06;6.35;5.87;
74419;PMS5003;62855;50.718;-2.460;2023-05-17T06:44:06;6.35;6.84;
74419;PMS5003;62855;50.718;-2.460;2023-05-17T06:47:05;6.35;6.84;
74419;PMS5003;62855;50.718;-2.460;2023-05-17T06:50:06;6.35;5.87;
74419;PMS5003;62855;50.718;-2.460;2023-05-17T06:53:05;6.35;5.87;
74419;PMS5003;62855;50.718;-2.460;2023-05-17T06:56:06;6.35;5.87;
74419;PMS5003;62855;50.718;-2.460;2023-05-17T06:59:06;7.26;6.84;
74419;PMS5003;62855;50.718;-2.460;2023-05-17T07:02:06;3.63;3.91;
74419;PMS5003;62855;50.718;-2.460;2023-05-17T07:05:06;3.63;3.91;
74419;PMS5003;62855;50.718;-2.460;2023-05-17T07:08:05;4.54;4.89;
74419;PMS5003;62855;50.718;-2.460;2023-05-17T07:11:06;5.45;5.87;
74419;PMS5003;62855;50.718;-2.460;2023-05-17T07:14:06;5.45;5.87;
74419;PMS5003;62855;50.718;-2.460;2023-05-17T07:17:06;5.45;5.87;
74419;PMS5003;62855;50.718;-2.460;2023-05-17T07:20:06;5.45;5.87;
74419;PMS5003;62855;50.718;-2.460;2023-05-17T07:23:06;5.45;5.87;
74419;PMS5003;62855;50.718;-2.460;2023-05-17T07:26:06;5.45;5.87;
74419;PMS5003;62855;50.718;-2.460;2023-05-17T07:29:05;5.45;5.87;
74419;PMS5003;62855;50.718;-2.460;2023-05-17T07:32:05;5.45;5.87;
74419;PMS5003;62855;50.718;-2.460;2023-05-17T07:35:06;5.45;5.87;
74419;PMS5003;62855;50.718;-2.460;2023-05-17T07:38:06;5.45;5.87;
74419;PMS5003;62855;50.718;-2.460;2023-05-17T07:41:06;4.54;4.89;
74419;PMS5003;62855;50.718;-2.460;2023-05-17T07:44:06;4.54;4.89;
74419;PMS5003;62855;50.718;-2.460;2023-05-17T07:47:06;4.54;4.89;
74419;PMS5003;62855;50.718;-2.460;2023-05-17T07:50:06;4.54;4.89;
74419;PMS5003;62855;50.718;-2.460;2023-05-17T07:53:05;4.54;4.89;
74419;PMS5003;62855;50.718;-2.460;2023-05-17T07:56:05;4.54;4.89;
74419;PMS5003;62855;50.718;-2.460;2023-05-17T07:59:05;3.63;3.91;
74419;PMS5003;62855;50.718;-2.460;2023-05-17T08:02:06;4.54;4.89;
74419;PMS5003;62855;50.718;-2.460;2023-05-17T08:05:06;4.54;4.89;
74419;PMS5003;62855;50.718;-2.460;2023-05-17T08:08:06;4.54;4.89;
74419;PMS5003;62855;50.718;-2.460;2023-05-17T08:11:06;3.63;3.91;
74419;PMS5003;62855;50.718;-2.460;2023-05-17T08:14:06;3.63;3.91;
74419;PMS5003;62855;50.718;-2.460;2023-05-17T08:17:06;4.54;4.89;
74419;PMS5003;62855;50.718;-2.460;2023-05-17T08:20:07;4.54;4.89;
74419;PMS5003;62855;50.718;-2.460;2023-05-17T08:23:06;3.63;3.91;
74419;PMS5003;62855;50.718;-2.460;2023-05-17T08:26:06;4.54;4.89;
74419;PMS5003;62855;50.718;-2.460;2023-05-17T08:29:06;4.54;4.89;
74419;PMS5003;62855;50.718;-2.460;2023-05-17T08:32:06;4.54;4.89;
74419;PMS5003;62855;50.718;-2.460;2023-05-17T08:35:06;5.45;4.89;
74419;PMS5003;62855;50.718;-2.460;2023-05-17T08:38:15;5.45;4.89;
74419;PMS5003;62855;50.718;-2.460;2023-05-17T08:41:05;5.45;4.89;
74419;PMS5003;62855;50.718;-2.460;2023-05-17T08:44:06;4.54;3.91;
74419;PMS5003;62855;50.718;-2.460;2023-05-17T08:47:06;5.45;4.89;
74419;PMS5003;62855;50.718;-2.460;2023-05-17T08:50:06;5.45;4.89;
74419;PMS5003;62855;50.718;-2.460;2023-05-17T08:53:06;5.45;4.89;
74419;PMS5003;62855;50.718;-2.460;2023-05-17T08:56:05;6.35;4.89;
74419;PMS5003;62855;50.718;-2.460;2023-05-17T08:59:06;5.45;4.89;
74419;PMS5003;62855;50.718;-2.460;2023-05-17T09:02:06;5.45;4.89;
74419;PMS5003;62855;50.718;-2.460;2023-05-17T09:05:05;4.54;4.89;
74419;PMS5003;62855;50.718;-2.460;2023-05-17T09:08:06;4.54;4.89;
74419;PMS5003;62855;50.718;-2.460;2023-05-17T09:11:05;4.54;4.89;
74419;PMS5003;62855;50.718;-2.460;2023-05-17T09:14:06;4.54;4.89;
74419;PMS5003;62855;50.718;-2.460;2023-05-17T09:17:06;4.54;4.89;
74419;PMS5003;62855;50.718;-2.460;2023-05-17T09:20:06;6.35;4.89;
74419;PMS5003;62855;50.718;-2.460;2023-05-17T09:23:06;6.35;4.89;
74419;PMS5003;62855;50.718;-2.460;2023-05-17T09:26:06;6.35;4.89;
74419;PMS5003;62855;50.718;-2.460;2023-05-17T09:29:07;6.35;4.89;
74419;PMS5003;62855;50.718;-2.460;2023-05-17T09:32:11;6.35;4.89;
74419;PMS5003;62855;50.718;-2.460;2023-05-17T09:35:06;6.35;4.89;
74419;PMS5003;62855;50.718;-2.460;2023-05-17T09:38:06;6.35;4.89;
74419;PMS5003;62855;50.718;-2.460;2023-05-17T09:41:05;6.35;4.89;
74419;PMS5003;62855;50.718;-2.460;2023-05-17T09:44:07;6.35;4.89;
74419;PMS5003;62855;50.718;-2.460;2023-05-17T09:47:06;6.35;4.89;
74419;PMS5003;62855;50.718;-2.460;2023-05-17T09:50:06;5.45;5.87;
74419;PMS5003;62855;50.718;-2.460;2023-05-17T09:53:05;5.45;5.87;
74419;PMS5003;62855;50.718;-2.460;2023-05-17T09:56:06;5.45;5.87;
74419;PMS5003;62855;50.718;-2.460;2023-05-17T09:59:09;6.35;6.84;
74419;PMS5003;62855;50.718;-2.460;2023-05-17T10:02:06;6.35;5.87;
74419;PMS5003;62855;50.718;-2.460;2023-05-17T10:05:07;6.35;6.84;
74419;PMS5003;62855;50.718;-2.460;2023-05-17T10:08:05;6.35;6.84;
74419;PMS5003;62855;50.718;-2.460;2023-05-17T10:11:07;7.26;6.84;
74419;PMS5003;62855;50.718;-2.460;2023-05-17T10:14:06;6.35;6.84;
74419;PMS5003;62855;50.718;-2.460;2023-05-17T10:17:06;7.26;6.84;
74419;PMS5003;62855;50.718;-2.460;2023-05-17T10:20:07;7.26;6.84;
74419;PMS5003;62855;50.718;-2.460;2023-05-17T10:23:05;7.26;6.84;
74419;PMS5003;62855;50.718;-2.460;2023-05-17T10:26:06;6.35;6.84;
74419;PMS5003;62855;50.718;-2.460;2023-05-17T10:29:05;6.35;5.87;
74419;PMS5003;62855;50.718;-2.460;2023-05-17T10:32:06;6.35;6.84;
74419;PMS5003;62855;50.718;-2.460;2023-05-17T10:35:06;6.35;6.84;
74419;PMS5003;62855;50.718;-2.460;2023-05-17T10:38:06;6.35;6.84;
74419;PMS5003;62855;50.718;-2.460;2023-05-17T10:41:06;5.45;5.87;
74419;PMS5003;62855;50.718;-2.460;2023-05-17T10:44:06;6.35;6.84;
74419;PMS5003;62855;50.718;-2.460;2023-05-17T10:47:06;6.35;6.84;
74419;PMS5003;62855;50.718;-2.460;2023-05-17T10:50:08;6.35;6.84;
74419;PMS5003;62855;50.718;-2.460;2023-05-17T10:53:07;7.26;6.84;
74419;PMS5003;62855;50.718;-2.460;2023-05-17T10:56:06;8.17;6.84;
74419;PMS5003;62855;50.718;-2.460;2023-05-17T10:59:14;8.17;6.84;
74419;PMS5003;62855;50.718;-2.460;2023-05-17T11:02:06;7.26;6.84;
74419;PMS5003;62855;50.718;-2.460;2023-05-17T11:05:06;7.26;5.87;
74419;PMS5003;62855;50.718;-2.460;2023-05-17T11:08:12;8.17;6.84;
74419;PMS5003;62855;50.718;-2.460;2023-05-17T11:11:06;9.08;8.80;
74419;PMS5003;62855;50.718;-2.460;2023-05-17T11:14:06;9.08;8.80;
74419;PMS5003;62855;50.718;-2.460;2023-05-17T11:20:07;8.17;7.82;
74419;PMS5003;62855;50.718;-2.460;2023-05-17T11:23:06;7.26;7.82;
74419;PMS5003;62855;50.718;-2.460;2023-05-17T11:29:07;8.17;8.80;
74419;PMS5003;62855;50.718;-2.460;2023-05-17T11:32:09;8.17;8.80;
74419;PMS5003;62855;50.718;-2.460;2023-05-17T11:35:06;8.17;7.82;
74419;PMS5003;62855;50.718;-2.460;2023-05-17T11:38:12;6.35;5.87;
74419;PMS5003;62855;50.718;-2.460;2023-05-17T11:41:15;5.45;4.89;
74419;PMS5003;62855;50.718;-2.460;2023-05-17T11:44:05;6.35;5.87;
74419;PMS5003;62855;50.718;-2.460;2023-05-17T11:48:16;6.35;5.87;
74419;PMS5003;62855;50.718;-2.460;2023-05-17T11:51:06;6.35;5.87;
74419;PMS5003;62855;50.718;-2.460;2023-05-17T11:54:06;6.35;6.84;
74419;PMS5003;62855;50.718;-2.460;2023-05-17T11:57:06;7.26;6.84;
74419;PMS5003;62855;50.718;-2.460;2023-05-17T12:00:06;5.45;5.87;
74419;PMS5003;62855;50.718;-2.460;2023-05-17T12:03:15;5.45;5.87;
74419;PMS5003;62855;50.718;-2.460;2023-05-17T12:06:06;4.54;4.89;
74419;PMS5003;62855;50.718;-2.460;2023-05-17T12:09:06;5.45;5.87;
74419;PMS5003;62855;50.718;-2.460;2023-05-17T12:12:05;5.45;5.87;
74419;PMS5003;62855;50.718;-2.460;2023-05-17T12:15:06;4.54;4.89;
74419;PMS5003;62855;50.718;-2.460;2023-05-17T12:18:06;5.45;5.87;
74419;PMS5003;62855;50.718;-2.460;2023-05-17T12:21:07;5.45;5.87;
74419;PMS5003;62855;50.718;-2.460;2023-05-17T12:24:06;4.54;3.91;
74419;PMS5003;62855;50.718;-2.460;2023-05-17T12:27:05;4.54;3.91;
74419;PMS5003;62855;50.718;-2.460;2023-05-17T12:30:13;5.45;4.89;
74419;PMS5003;62855;50.718;-2.460;2023-05-17T12:33:05;5.45;4.89;
74419;PMS5003;62855;50.718;-2.460;2023-05-17T12:36:06;4.54;3.91;
74419;PMS5003;62855;50.718;-2.460;2023-05-17T12:39:06;4.54;3.91;
74419;PMS5003;62855;50.718;-2.460;2023-05-17T12:42:06;5.45;4.89;
74419;PMS5003;62855;50.718;-2.460;2023-05-17T12:45:07;4.54;3.91;
74419;PMS5003;62855;50.718;-2.460;2023-05-17T12:48:06;4.54;3.91;
74419;PMS5003;62855;50.718;-2.460;2023-05-17T12:51:06;4.54;2.93;
74419;PMS5003;62855;50.718;-2.460;2023-05-17T12:54:06;2.72;2.93;
74419;PMS5003;62855;50.718;-2.460;2023-05-17T12:57:09;4.54;3.91;
74419;PMS5003;62855;50.718;-2.460;2023-05-17T13:00:06;3.63;3.91;
74419;PMS5003;62855;50.718;-2.460;2023-05-17T13:03:08;3.63;2.93;
74419;PMS5003;62855;50.718;-2.460;2023-05-17T13:06:06;4.54;4.89;
74419;PMS5003;62855;50.718;-2.460;2023-05-17T13:09:06;3.63;3.91;
74419;PMS5003;62855;50.718;-2.460;2023-05-17T13:12:06;3.63;3.91;
74419;PMS5003;62855;50.718;-2.460;2023-05-17T13:15:06;5.45;4.89;
74419;PMS5003;62855;50.718;-2.460;2023-05-17T13:19:11;10.89;3.91;
74419;PMS5003;62855;50.718;-2.460;2023-05-17T13:20:06;0.91;0.98;
74419;PMS5003;62855;50.718;-2.460;2023-05-17T13:23:06;3.63;3.91;
74419;PMS5003;62855;50.718;-2.460;2023-05-17T13:26:06;4.54;4.89;
74419;PMS5003;62855;50.718;-2.460;2023-05-17T13:29:06;2.72;2.93;
74419;PMS5003;62855;50.718;-2.460;2023-05-17T13:32:06;3.63;3.91;
74419;PMS5003;62855;50.718;-2.460;2023-05-17T13:35:06;2.72;1.96;
74419;PMS5003;62855;50.718;-2.460;2023-05-17T13:38:06;2.72;2.93;
74419;PMS5003;62855;50.718;-2.460;2023-05-17T13:41:06;2.72;2.93;
74419;PMS5003;62855;50.718;-2.460;2023-05-17T13:44:06;3.63;3.91;
74419;PMS5003;62855;50.718;-2.460;2023-05-17T13:47:06;5.45;3.91;
74419;PMS5003;62855;50.718;-2.460;2023-05-17T13:50:06;5.45;4.89;
74419;PMS5003;62855;50.718;-2.460;2023-05-17T13:53:06;6.35;4.89;
74419;PMS5003;62855;50.718;-2.460;2023-05-17T13:56:06;6.35;5.87;
74419;PMS5003;62855;50.718;-2.460;2023-05-17T13:59:06;6.35;4.89;
74419;PMS5003;62855;50.718;-2.460;2023-05-17T14:02:06;6.35;4.89;
74419;PMS5003;62855;50.718;-2.460;2023-05-17T14:05:05;7.26;5.87;
74419;PMS5003;62855;50.718;-2.460;2023-05-17T14:08:06;7.26;5.87;
74419;PMS5003;62855;50.718;-2.460;2023-05-17T14:11:06;7.26;6.84;
74419;PMS5003;62855;50.718;-2.460;2023-05-17T14:14:06;7.26;5.87;
74419;PMS5003;62855;50.718;-2.460;2023-05-17T14:17:05;6.35;5.87;
74419;PMS5003;62855;50.718;-2.460;2023-05-17T14:20:06;6.35;5.87;
74419;PMS5003;62855;50.718;-2.460;2023-05-17T14:23:06;5.45;5.87;
74419;PMS5003;62855;50.718;-2.460;2023-05-17T14:26:06;5.45;5.87;
74419;PMS5003;62855;50.718;-2.460;2023-05-17T14:29:06;5.45;5.87;
74419;PMS5003;62855;50.718;-2.460;2023-05-17T14:32:06;5.45;5.87;
74419;PMS5003;62855;50.718;-2.460;2023-05-17T14:35:06;6.35;5.87;
74419;PMS5003;62855;50.718;-2.460;2023-05-17T14:38:06;7.26;6.84;
74419;PMS5003;62855;50.718;-2.460;2023-05-17T14:41:05;7.26;6.84;
74419;PMS5003;62855;50.718;-2.460;2023-05-17T14:44:05;7.26;5.87;
74419;PMS5003;62855;50.718;-2.460;2023-05-17T14:47:06;7.26;6.84;
74419;PMS5003;62855;50.718;-2.460;2023-05-17T14:50:06;7.26;5.87;
74419;PMS5003;62855;50.718;-2.460;2023-05-17T14:53:05;7.26;6.84;
74419;PMS5003;62855;50.718;-2.460;2023-05-17T14:56:05;8.17;6.84;
74419;PMS5003;62855;50.718;-2.460;2023-05-17T14:59:06;7.26;6.84;
74419;PMS5003;62855;50.718;-2.460;2023-05-17T15:02:06;8.17;7.82;
74419;PMS5003;62855;50.718;-2.460;2023-05-17T15:05:06;7.26;6.84;
74419;PMS5003;62855;50.718;-2.460;2023-05-17T15:08:06;7.26;6.84;
74419;PMS5003;62855;50.718;-2.460;2023-05-17T15:11:06;6.35;6.84;
74419;PMS5003;62855;50.718;-2.460;2023-05-17T15:14:06;7.26;6.84;
74419;PMS5003;62855;50.718;-2.460;2023-05-17T15:17:06;6.35;5.87;
74419;PMS5003;62855;50.718;-2.460;2023-05-17T15:20:07;7.26;6.84;
74419;PMS5003;62855;50.718;-2.460;2023-05-17T15:23:05;8.17;6.84;
74419;PMS5003;62855;50.718;-2.460;2023-05-17T15:26:06;7.26;6.84;
74419;PMS5003;62855;50.718;-2.460;2023-05-17T15:29:06;7.26;6.84;
74419;PMS5003;62855;50.718;-2.460;2023-05-17T15:32:06;7.26;6.84;
74419;PMS5003;62855;50.718;-2.460;2023-05-17T15:35:06;7.26;6.84;
74419;PMS5003;62855;50.718;-2.460;2023-05-17T15:38:05;6.35;6.84;
74419;PMS5003;62855;50.718;-2.460;2023-05-17T15:41:08;6.35;6.84;
74419;PMS5003;62855;50.718;-2.460;2023-05-17T15:44:06;8.17;7.82;
74419;PMS5003;62855;50.718;-2.460;2023-05-17T15:47:05;8.17;7.82;
74419;PMS5003;62855;50.718;-2.460;2023-05-17T15:50:06;7.26;6.84;
74419;PMS5003;62855;50.718;-2.460;2023-05-17T15:53:05;6.35;5.87;
74419;PMS5003;62855;50.718;-2.460;2023-05-17T15:56:06;6.35;6.84;
74419;PMS5003;62855;50.718;-2.460;2023-05-17T15:59:06;7.26;6.84;
74419;PMS5003;62855;50.718;-2.460;2023-05-17T16:02:06;7.26;6.84;
74419;PMS5003;62855;50.718;-2.460;2023-05-17T16:05:06;7.26;5.87;
74419;PMS5003;62855;50.718;-2.460;2023-05-17T16:08:06;7.26;6.84;
74419;PMS5003;62855;50.718;-2.460;2023-05-17T16:11:06;8.17;6.84;
74419;PMS5003;62855;50.718;-2.460;2023-05-17T16:14:06;7.26;5.87;
74419;PMS5003;62855;50.718;-2.460;2023-05-17T16:17:06;7.26;6.84;
74419;PMS5003;62855;50.718;-2.460;2023-05-17T16:20:06;7.26;6.84;
74419;PMS5003;62855;50.718;-2.460;2023-05-17T16:23:06;8.17;6.84;
74419;PMS5003;62855;50.718;-2.460;2023-05-17T16:26:05;7.26;6.84;
74419;PMS5003;62855;50.718;-2.460;2023-05-17T16:29:05;6.35;6.84;
74419;PMS5003;62855;50.718;-2.460;2023-05-17T16:32:06;6.35;6.84;
74419;PMS5003;62855;50.718;-2.460;2023-05-17T16:35:06;7.26;7.82;
74419;PMS5003;62855;50.718;-2.460;2023-05-17T16:38:06;6.35;6.84;
74419;PMS5003;62855;50.718;-2.460;2023-05-17T16:41:06;6.35;6.84;
74419;PMS5003;62855;50.718;-2.460;2023-05-17T16:44:06;6.35;6.84;
74419;PMS5003;62855;50.718;-2.460;2023-05-17T16:47:06;6.35;5.87;
74419;PMS5003;62855;50.718;-2.460;2023-05-17T16:50:06;6.35;5.87;
74419;PMS5003;62855;50.718;-2.460;2023-05-17T16:53:06;6.35;6.84;
74419;PMS5003;62855;50.718;-2.460;2023-05-17T16:56:06;7.26;5.87;
74419;PMS5003;62855;50.718;-2.460;2023-05-17T16:59:06;7.26;6.84;
74419;PMS5003;62855;50.718;-2.460;2023-05-17T17:02:06;8.17;6.84;
74419;PMS5003;62855;50.718;-2.460;2023-05-17T17:05:05;7.26;6.84;
74419;PMS5003;62855;50.718;-2.460;2023-05-17T17:08:06;7.26;6.84;
74419;PMS5003;62855;50.718;-2.460;2023-05-17T17:11:06;7.26;5.87;
74419;PMS5003;62855;50.718;-2.460;2023-05-17T17:14:05;5.45;5.87;
74419;PMS5003;62855;50.718;-2.460;2023-05-17T17:17:06;6.35;5.87;
74419;PMS5003;62855;50.718;-2.460;2023-05-17T17:20:07;7.26;5.87;
74419;PMS5003;62855;50.718;-2.460;2023-05-17T17:23:05;6.35;5.87;
74419;PMS5003;62855;50.718;-2.460;2023-05-17T17:26:05;6.35;5.87;
74419;PMS5003;62855;50.718;-2.460;2023-05-17T17:29:06;5.45;5.87;
74419;PMS5003;62855;50.718;-2.460;2023-05-17T17:32:06;5.45;5.87;
74419;PMS5003;62855;50.718;-2.460;2023-05-17T17:35:06;6.35;5.87;
74419;PMS5003;62855;50.718;-2.460;2023-05-17T17:38:06;7.26;6.84;
74419;PMS5003;62855;50.718;-2.460;2023-05-17T17:41:05;7.26;6.84;
74419;PMS5003;62855;50.718;-2.460;2023-05-17T17:44:06;7.26;6.84;
74419;PMS5003;62855;50.718;-2.460;2023-05-17T17:47:06;7.26;6.84;
74419;PMS5003;62855;50.718;-2.460;2023-05-17T17:50:06;6.35;6.84;
74419;PMS5003;62855;50.718;-2.460;2023-05-17T17:53:05;7.26;6.84;
74419;PMS5003;62855;50.718;-2.460;2023-05-17T17:56:06;6.35;6.84;
74419;PMS5003;62855;50.718;-2.460;2023-05-17T17:59:06;7.26;6.84;
74419;PMS5003;62855;50.718;-2.460;2023-05-17T18:02:06;7.26;6.84;
74419;PMS5003;62855;50.718;-2.460;2023-05-17T18:05:06;7.26;6.84;
74419;PMS5003;62855;50.718;-2.460;2023-05-17T18:08:05;6.35;5.87;
74419;PMS5003;62855;50.718;-2.460;2023-05-17T18:11:05;6.35;5.87;
74419;PMS5003;62855;50.718;-2.460;2023-05-17T18:14:06;6.35;5.87;
74419;PMS5003;62855;50.718;-2.460;2023-05-17T18:17:06;6.35;6.84;
74419;PMS5003;62855;50.718;-2.460;2023-05-17T18:20:06;6.35;5.87;
74419;PMS5003;62855;50.718;-2.460;2023-05-17T18:23:06;5.45;4.89;
74419;PMS5003;62855;50.718;-2.460;2023-05-17T18:26:06;6.35;5.87;